Time;durP1;ratioP1;P1;durP2;ratioP2;P2;SDS_P1;SDS_P2;PMS_P1;PMS_P2;Temp;Humidity;BMP_temperature;BMP_pressure;BME280_temperature;BME280_humidity;BME280_pressure;Samples;Min_cycle;Max_cycle;Signal;HPM_P1;HPM_P2
2023/06/13 00:01:02;;;;;;;7.50;6.18;;;;;;;18.22;97.75;100383.66;4956357;29;20027;-94
2023/06/13 00:03:29;;;;;;;9.23;7.32;;;;;;;18.27;97.16;100384.06;4956049;28;20023;-94
2023/06/13 00:05:55;;;;;;;7.50;6.15;;;;;;;18.26;97.24;100386.81;4938769;29;20042;-94
2023/06/13 00:08:24;;;;;;;7.72;6.93;;;;;;;18.20;97.23;100388.22;4938787;29;20034;-95
2023/06/13 00:10:50;;;;;;;7.32;5.57;;;;;;;18.15;97.89;100385.19;4938978;29;20067;-94
2023/06/13 00:13:17;;;;;;;6.68;5.25;;;;;;;18.09;98.06;100396.19;4945360;28;20077;-94
2023/06/13 00:15:56;;;;;;;7.10;5.70;;;;;;;17.99;99.15;100395.34;4974971;28;20062;-96
2023/06/13 00:18:22;;;;;;;7.97;6.18;;;;;;;17.96;99.37;100386.81;4975342;28;20110;-96
2023/06/13 00:20:49;;;;;;;10.02;7.40;;;;;;;18.11;98.00;100389.03;4975620;28;20437;-94
2023/06/13 00:23:15;;;;;;;8.75;6.38;;;;;;;18.07;97.47;100390.25;4957784;28;20085;-94
2023/06/13 00:25:40;;;;;;;8.88;6.45;;;;;;;17.92;99.00;100385.47;4957722;28;20027;-96
2023/06/13 00:28:06;;;;;;;7.32;6.40;;;;;;;17.90;100.00;100387.38;4956384;28;20366;-94
2023/06/13 00:30:31;;;;;;;8.13;6.38;;;;;;;17.92;100.00;100390.69;4957637;28;20027;-95
2023/06/13 00:32:57;;;;;;;7.75;5.75;;;;;;;17.85;100.00;100380.91;4957600;28;20177;-95
2023/06/13 00:35:23;;;;;;;6.82;5.97;;;;;;;17.75;100.00;100378.25;4957501;28;20031;-94
2023/06/13 00:37:54;;;;;;;9.32;6.60;;;;;;;17.73;100.00;100374.97;4974818;28;20084;-96
2023/06/13 00:40:20;;;;;;;7.90;5.93;;;;;;;17.80;99.68;100376.13;4957596;28;20022;-96
2023/06/13 00:42:45;;;;;;;7.00;5.88;;;;;;;17.65;100.00;100378.25;4972932;28;20042;-96
2023/06/13 00:45:25;;;;;;;9.00;6.18;;;;;;;17.68;100.00;100378.00;4955366;28;20549;-95
2023/06/13 00:47:56;;;;;;;8.40;6.40;;;;;;;17.61;100.00;100371.66;4973991;28;20147;-96
2023/06/13 00:50:27;;;;;;;8.65;7.18;;;;;;;17.55;100.00;100373.00;4974823;28;20034;-96
2023/06/13 00:52:58;;;;;;;7.72;6.95;;;;;;;17.55;100.00;100362.56;4974742;28;20539;-95
2023/06/13 00:55:25;;;;;;;10.38;6.82;;;;;;;17.49;100.00;100370.94;4957228;28;20031;-96
2023/06/13 00:57:55;;;;;;;6.93;6.22;;;;;;;17.51;100.00;100369.03;4957393;28;20114;-96
2023/06/13 01:00:22;;;;;;;10.82;7.53;;;;;;;17.51;100.00;100371.66;4974412;28;20023;-95
2023/06/13 01:02:48;;;;;;;10.88;7.72;;;;;;;17.58;100.00;100377.16;4956984;28;20062;-96
2023/06/13 01:05:13;;;;;;;9.65;8.60;;;;;;;17.55;100.00;100372.19;4957186;28;20109;-96
2023/06/13 01:07:40;;;;;;;11.15;10.00;;;;;;;17.73;100.00;100377.59;4956978;28;20035;-95
2023/06/13 01:10:07;;;;;;;11.60;9.45;;;;;;;17.63;100.00;100371.50;4974171;28;20474;-96
2023/06/13 01:12:40;;;;;;;12.70;9.95;;;;;;;17.61;100.00;100376.06;4956275;28;20031;-95
2023/06/13 01:15:10;;;;;;;10.93;9.10;;;;;;;17.55;100.00;100377.41;4956843;28;20023;-96
2023/06/13 01:17:41;;;;;;;12.55;10.05;;;;;;;17.51;100.00;100376.88;4956927;28;20031;-96
2023/06/13 01:20:10;;;;;;;9.93;8.40;;;;;;;17.39;100.00;100377.94;4956851;28;20386;-96
2023/06/13 01:22:54;;;;;;;8.73;7.82;;;;;;;17.35;100.00;100376.56;4956374;28;20225;-95
2023/06/13 01:26:04;;;;;;;13.25;8.35;;;;;;;17.25;100.00;100383.53;4956671;28;20034;-96
2023/06/13 01:28:33;;;;;;;10.50;9.07;;;;;;;17.24;100.00;100374.03;4952119;28;20405;-96
2023/06/13 01:31:01;;;;;;;12.80;10.25;;;;;;;17.19;100.00;100378.81;4956649;28;20421;-95
2023/06/13 01:33:26;;;;;;;12.00;9.75;;;;;;;17.14;100.00;100367.97;4973918;28;20027;-96
2023/06/13 01:35:52;;;;;;;12.10;10.75;;;;;;;17.05;100.00;100369.59;4956704;28;20066;-96
2023/06/13 01:38:18;;;;;;;12.10;10.80;;;;;;;17.06;100.00;100366.84;4956463;28;20026;-94
2023/06/13 01:40:44;;;;;;;13.63;12.23;;;;;;;17.02;100.00;100373.31;4956548;28;20027;-96
2023/06/13 01:43:09;;;;;;;14.20;12.07;;;;;;;17.04;100.00;100370.53;4955611;28;20073;-96
2023/06/13 01:45:35;;;;;;;13.05;11.75;;;;;;;16.98;100.00;100356.25;4973856;28;20470;-94
2023/06/13 01:48:12;;;;;;;15.10;13.13;;;;;;;16.85;100.00;100359.09;4973708;28;20046;-95
2023/06/13 01:50:48;;;;;;;12.73;11.43;;;;;;;16.90;100.00;100369.13;4956561;28;20038;-96
2023/06/13 01:53:29;;;;;;;13.13;11.40;;;;;;;16.85;100.00;100366.06;4956257;28;20019;-96
2023/06/13 01:56:08;;;;;;;13.50;11.57;;;;;;;16.78;100.00;100365.78;4956305;28;20030;-95
2023/06/13 01:58:52;;;;;;;13.15;10.95;;;;;;;16.75;100.00;100362.56;4956491;28;20082;-94
2023/06/13 02:01:19;;;;;;;12.07;10.77;;;;;;;16.72;100.00;100358.44;4956002;28;20117;-95
2023/06/13 02:03:45;;;;;;;12.77;11.27;;;;;;;16.72;100.00;100352.41;4973564;28;20471;-95
2023/06/13 02:06:10;;;;;;;14.23;12.02;;;;;;;16.72;100.00;100357.63;4956284;28;20027;-93
2023/06/13 02:08:36;;;;;;;13.63;12.23;;;;;;;16.63;100.00;100359.19;4956012;28;20486;-94
2023/06/13 02:11:01;;;;;;;14.80;11.82;;;;;;;16.61;100.00;100353.31;4956206;28;20377;-94
2023/06/13 02:13:26;;;;;;;17.67;14.27;;;;;;;16.76;100.00;100359.00;4971433;28;20589;-94
2023/06/13 02:15:52;;;;;;;20.63;15.18;;;;;;;16.59;100.00;100348.22;4973248;28;20139;-94
2023/06/13 02:18:17;;;;;;;16.38;12.82;;;;;;;16.64;100.00;100351.28;4973421;28;20034;-95
2023/06/13 02:20:43;;;;;;;13.63;12.07;;;;;;;16.57;100.00;100347.53;4955961;28;20019;-95
2023/06/13 02:23:09;;;;;;;16.98;12.57;;;;;;;16.55;100.00;100344.22;4973287;28;20553;-94
2023/06/13 02:25:35;;;;;;;13.98;11.70;;;;;;;16.59;100.00;100350.00;4955929;28;20027;-94
2023/06/13 02:28:00;;;;;;;16.88;12.73;;;;;;;16.55;100.00;100346.81;4955826;28;20035;-93
2023/06/13 02:30:26;;;;;;;17.05;13.07;;;;;;;16.54;100.00;100344.38;4971570;28;20117;-94
2023/06/13 02:32:52;;;;;;;14.63;13.07;;;;;;;16.50;100.00;100346.38;4955797;28;20367;-93
2023/06/13 02:35:22;;;;;;;19.05;14.57;;;;;;;16.52;100.00;100347.09;4955932;28;20034;-94
2023/06/13 02:37:54;;;;;;;17.77;15.32;;;;;;;16.43;100.00;100348.66;4955793;28;21087;-94
2023/06/13 02:40:23;;;;;;;18.27;15.82;;;;;;;16.49;100.00;100342.16;4972930;28;20102;-94
2023/06/13 02:42:49;;;;;;;21.58;18.20;;;;;;;16.51;100.00;100342.84;4954626;28;20091;-93
2023/06/13 02:45:18;;;;;;;20.58;16.42;;;;;;;16.44;100.00;100331.28;4973019;28;20489;-94
2023/06/13 02:47:43;;;;;;;22.63;19.05;;;;;;;16.51;100.00;100339.38;4955617;28;20038;-94
2023/06/13 02:50:09;;;;;;;22.95;19.70;;;;;;;16.47;100.00;100334.44;4972770;28;20031;-94
2023/06/13 02:52:35;;;;;;;26.13;20.05;;;;;;;16.51;100.00;100335.03;4973248;28;20027;-95
2023/06/13 02:55:02;;;;;;;20.17;17.98;;;;;;;16.44;100.00;100326.06;4955860;28;20019;-94
2023/06/13 02:57:28;;;;;;;26.02;19.08;;;;;;;16.42;100.00;100330.59;4955502;28;20022;-94
2023/06/13 02:59:53;;;;;;;23.10;19.38;;;;;;;16.44;100.00;100328.69;4971290;28;20428;-94
2023/06/13 03:02:21;;;;;;;24.30;19.65;;;;;;;16.30;100.00;100331.59;4972726;28;20035;-94
2023/06/13 03:04:50;;;;;;;25.75;20.45;;;;;;;16.32;100.00;100329.72;4955809;28;20138;-94
2023/06/13 03:07:16;;;;;;;23.55;19.35;;;;;;;16.35;100.00;100332.88;4959149;28;20023;-93
2023/06/13 03:09:42;;;;;;;27.58;20.83;;;;;;;16.30;100.00;100327.22;4959265;28;20113;-94
2023/06/13 03:12:08;;;;;;;22.73;19.73;;;;;;;16.25;100.00;100327.59;4976655;28;20396;-95
2023/06/13 03:14:33;;;;;;;23.58;18.33;;;;;;;16.24;100.00;100325.09;4958318;28;20031;-94
2023/06/13 03:16:59;;;;;;;25.13;19.73;;;;;;;16.31;100.00;100323.66;4958933;28;20062;-94
2023/06/13 03:19:24;;;;;;;25.40;20.52;;;;;;;16.36;100.00;100324.13;4976172;28;20528;-94
2023/06/13 03:21:50;;;;;;;24.85;19.70;;;;;;;16.30;100.00;100321.19;4976274;28;20027;-93
2023/06/13 03:24:15;;;;;;;24.80;19.67;;;;;;;16.30;100.00;100321.19;4976605;28;20027;-94
2023/06/13 03:26:41;;;;;;;24.42;19.60;;;;;;;16.27;100.00;100327.47;4976268;28;20073;-94
2023/06/13 03:29:07;;;;;;;25.98;19.77;;;;;;;16.18;100.00;100329.06;4975951;28;20081;-95
2023/06/13 03:31:32;;;;;;;27.40;21.33;;;;;;;16.08;100.00;100325.56;4976142;28;20023;-94
2023/06/13 03:33:58;;;;;;;23.52;20.45;;;;;;;16.00;100.00;100327.97;4976012;28;20488;-95
2023/06/13 03:36:23;;;;;;;22.67;19.35;;;;;;;15.97;100.00;100330.81;4958651;28;20377;-93
2023/06/13 03:38:50;;;;;;;22.67;19.08;;;;;;;15.93;100.00;100330.25;4975941;28;20465;-94
2023/06/13 03:41:15;;;;;;;22.25;18.35;;;;;;;15.79;100.00;100328.75;4975903;28;20102;-95
2023/06/13 03:43:40;;;;;;;21.90;17.95;;;;;;;15.79;100.00;100333.97;4974078;28;20500;-94
2023/06/13 03:46:06;;;;;;;26.88;19.27;;;;;;;15.59;100.00;100337.34;4958411;28;20038;-95
2023/06/13 03:48:31;;;;;;;24.08;19.85;;;;;;;15.64;100.00;100335.19;4976095;28;20504;-94
2023/06/13 03:50:57;;;;;;;27.15;20.77;;;;;;;15.60;100.00;100329.38;4958381;28;20027;-94
2023/06/13 03:53:22;;;;;;;26.60;19.58;;;;;;;15.65;100.00;100336.81;4958342;28;20473;-94
2023/06/13 03:55:48;;;;;;;21.83;18.42;;;;;;;15.59;100.00;100329.53;4958389;28;20058;-95
2023/06/13 03:58:14;;;;;;;23.20;20.00;;;;;;;15.47;100.00;100338.31;4958522;28;20023;-96
2023/06/13 04:00:40;;;;;;;26.73;20.73;;;;;;;15.46;100.00;100336.63;4957922;28;20093;-94
2023/06/13 04:03:07;;;;;;;26.10;20.80;;;;;;;15.44;100.00;100338.56;4975629;28;20023;-95
2023/06/13 04:05:33;;;;;;;21.48;18.30;;;;;;;15.36;100.00;100332.19;4958375;28;20022;-95
2023/06/13 04:07:58;;;;;;;26.15;17.80;;;;;;;15.40;100.00;100338.78;4957969;28;20647;-94
2023/06/13 04:10:24;;;;;;;21.13;18.48;;;;;;;15.38;100.00;100330.28;4958384;28;20333;-95
2023/06/13 04:12:49;;;;;;;19.17;16.33;;;;;;;15.28;100.00;100334.56;4957772;28;20093;-94
2023/06/13 04:15:15;;;;;;;21.58;17.13;;;;;;;15.37;100.00;100339.03;4958550;28;20030;-94
2023/06/13 04:17:40;;;;;;;17.75;15.80;;;;;;;15.34;100.00;100338.47;4957895;28;20397;-93
2023/06/13 04:20:06;;;;;;;18.05;15.95;;;;;;;15.31;100.00;100339.50;4958177;28;20027;-96
2023/06/13 04:22:32;;;;;;;23.83;17.70;;;;;;;15.36;100.00;100341.75;4975394;28;20030;-94
2023/06/13 04:24:57;;;;;;;18.38;15.80;;;;;;;15.30;100.00;100337.88;4975354;28;20038;-94
2023/06/13 04:27:27;;;;;;;19.73;16.75;;;;;;;15.22;100.00;100337.66;4975236;28;20102;-94
2023/06/13 04:29:53;;;;;;;24.13;16.98;;;;;;;15.16;100.00;100351.13;4958030;28;20023;-94
2023/06/13 04:32:23;;;;;;;17.02;14.45;;;;;;;15.18;100.00;100351.81;4957944;28;20022;-96
2023/06/13 04:34:52;;;;;;;21.17;15.65;;;;;;;15.23;100.00;100357.50;4975740;28;20496;-94
2023/06/13 04:37:25;;;;;;;18.38;14.85;;;;;;;15.20;100.00;100342.97;4975189;28;20027;-94
2023/06/13 04:39:52;;;;;;;17.38;14.43;;;;;;;15.21;100.00;100341.19;4957874;28;20027;-94
2023/06/13 04:42:28;;;;;;;18.20;14.50;;;;;;;15.27;100.00;100358.09;4975135;28;20153;-94
2023/06/13 04:44:58;;;;;;;16.52;14.70;;;;;;;15.23;100.00;100357.50;4973570;28;20109;-95
2023/06/13 04:47:26;;;;;;;19.55;13.75;;;;;;;15.20;100.00;100353.34;4957683;28;20060;-95
2023/06/13 04:49:51;;;;;;;18.42;13.98;;;;;;;15.16;100.00;100353.72;4957729;28;20492;-94
2023/06/13 04:52:18;;;;;;;19.98;15.43;;;;;;;15.30;100.00;100357.84;4957671;28;20027;-94
2023/06/13 04:54:45;;;;;;;16.38;14.65;;;;;;;15.22;100.00;100360.22;4957718;28;20031;-95
2023/06/13 04:57:12;;;;;;;17.13;14.73;;;;;;;15.25;100.00;100366.00;4957681;28;20022;-95
2023/06/13 04:59:38;;;;;;;19.95;15.50;;;;;;;15.22;100.00;100368.03;4957378;28;20031;-94
2023/06/13 05:02:04;;;;;;;19.63;14.43;;;;;;;15.22;100.00;100363.66;4957217;28;20119;-96
2023/06/13 05:04:29;;;;;;;16.48;14.15;;;;;;;15.23;100.00;100369.69;4975030;28;20105;-95
2023/06/13 05:06:57;;;;;;;17.30;14.77;;;;;;;15.36;100.00;100383.34;4966006;28;20371;-94
2023/06/13 05:09:22;;;;;;;19.10;14.73;;;;;;;15.32;100.00;100374.16;4968346;28;20027;-93
2023/06/13 05:11:47;;;;;;;16.50;13.02;;;;;;;15.22;100.00;100381.84;4965072;28;20459;-96
2023/06/13 05:14:13;;;;;;;21.20;16.58;;;;;;;15.30;100.00;100384.66;4937167;28;20023;-95
2023/06/13 05:16:38;;;;;;;18.63;16.27;;;;;;;15.26;100.00;100377.22;4955213;28;20041;-96
2023/06/13 05:19:05;;;;;;;18.35;15.85;;;;;;;15.32;100.00;100374.16;4952741;28;20062;-94
2023/06/13 05:21:31;;;;;;;20.23;15.45;;;;;;;15.41;100.00;100381.22;4972792;28;20066;-94
2023/06/13 05:23:57;;;;;;;18.15;15.25;;;;;;;15.33;100.00;100387.03;4954266;28;20026;-95
2023/06/13 05:26:23;;;;;;;17.58;14.15;;;;;;;15.38;100.00;100391.88;4954234;28;20062;-95
2023/06/13 05:28:48;;;;;;;17.58;14.27;;;;;;;15.41;100.00;100387.28;4936476;28;20094;-96
2023/06/13 05:31:14;;;;;;;28.30;21.48;;;;;;;15.43;100.00;100378.50;4937053;28;20884;-94
2023/06/13 05:33:40;;;;;;;25.10;20.95;;;;;;;15.56;100.00;100384.41;4956375;28;20035;-96
2023/06/13 05:36:05;;;;;;;21.40;17.95;;;;;;;15.57;100.00;100386.06;4954166;28;20019;-94
2023/06/13 05:38:33;;;;;;;18.35;15.38;;;;;;;15.64;100.00;100384.63;4972824;28;20027;-95
2023/06/13 05:40:59;;;;;;;23.00;16.55;;;;;;;15.70;100.00;100380.72;4950544;28;20019;-94
2023/06/13 05:43:24;;;;;;;21.10;17.58;;;;;;;15.77;100.00;100387.91;4939255;28;20385;-94
2023/06/13 05:45:50;;;;;;;25.42;18.35;;;;;;;15.80;100.00;100390.28;4945122;28;20030;-92
2023/06/13 05:48:15;;;;;;;21.80;17.40;;;;;;;15.86;100.00;100395.94;4962443;28;20035;-95
2023/06/13 05:50:41;;;;;;;22.73;18.40;;;;;;;15.92;100.00;100388.44;4959954;28;20030;-94
2023/06/13 05:53:06;;;;;;;20.45;16.42;;;;;;;16.04;100.00;100387.50;4973298;28;20118;-95
2023/06/13 05:55:32;;;;;;;22.90;16.88;;;;;;;16.05;100.00;100390.91;4952232;28;20030;-95
2023/06/13 05:57:57;;;;;;;18.75;14.73;;;;;;;16.16;100.00;100392.63;4953161;28;20035;-93
2023/06/13 06:00:22;;;;;;;20.58;15.00;;;;;;;16.32;100.00;100400.03;4964919;28;20114;-94
2023/06/13 06:02:48;;;;;;;14.10;12.05;;;;;;;16.48;93.58;100395.19;4956411;28;20089;-94
2023/06/13 06:05:14;;;;;;;11.43;6.20;;;;;;;16.68;77.78;100394.38;4955820;28;20466;-93
2023/06/13 06:07:43;;;;;;;15.35;5.93;;;;;;;16.90;75.29;100395.19;4955753;28;20030;-95
2023/06/13 06:10:10;;;;;;;11.18;5.53;;;;;;;18.57;69.58;100411.00;4971593;28;20043;-94
2023/06/13 06:12:35;;;;;;;10.43;5.30;;;;;;;21.49;55.02;100404.38;4972891;28;20273;-92
2023/06/13 06:15:02;;;;;;;10.23;6.50;;;;;;;22.85;50.31;100407.38;4955272;28;20106;-94
2023/06/13 06:17:27;;;;;;;11.13;5.40;;;;;;;23.62;47.38;100406.72;4954927;28;20027;-95
2023/06/13 06:19:53;;;;;;;15.50;5.60;;;;;;;24.98;44.88;100410.38;4972389;28;20499;-94
2023/06/13 06:22:18;;;;;;;11.38;4.90;;;;;;;25.45;43.68;100411.78;4955464;28;20019;-93
2023/06/13 06:24:44;;;;;;;8.98;5.10;;;;;;;26.31;41.08;100408.34;4953919;28;20030;-94
2023/06/13 06:27:12;;;;;;;6.70;4.38;;;;;;;26.24;40.31;100398.56;4972383;28;20058;-95
2023/06/13 06:29:39;;;;;;;5.55;4.05;;;;;;;26.45;40.57;100408.25;4954827;28;20034;-95
2023/06/13 06:32:06;;;;;;;9.80;4.90;;;;;;;26.75;38.42;100408.09;4954806;28;20035;-94
2023/06/13 06:34:31;;;;;;;6.85;4.28;;;;;;;27.48;37.45;100402.31;4972070;28;20528;-93
2023/06/13 06:36:57;;;;;;;7.22;4.40;;;;;;;28.14;36.99;100405.09;4971976;28;20035;-94
2023/06/13 06:39:22;;;;;;;7.38;4.10;;;;;;;28.39;37.09;100404.47;4972543;28;20046;-94
2023/06/13 06:41:48;;;;;;;5.85;4.25;;;;;;;28.42;35.86;100404.03;4975955;28;20027;-95
2023/06/13 06:44:14;;;;;;;5.47;4.20;;;;;;;29.69;34.62;100414.28;4957099;28;20037;-95
2023/06/13 06:46:40;;;;;;;14.57;4.97;;;;;;;30.15;33.98;100405.94;4974752;28;20508;-92
2023/06/13 06:49:05;;;;;;;5.85;4.15;;;;;;;30.04;33.46;100404.00;4972755;28;20035;-94
2023/06/13 06:51:31;;;;;;;9.45;4.28;;;;;;;30.29;33.25;100399.50;4974923;28;20528;-93
2023/06/13 06:53:56;;;;;;;4.85;3.85;;;;;;;30.54;33.57;100406.66;4972532;28;20409;-93
2023/06/13 06:56:22;;;;;;;6.80;4.43;;;;;;;30.08;33.78;100407.84;4975188;28;20035;-94
2023/06/13 06:58:47;;;;;;;6.57;4.43;;;;;;;31.03;31.98;100396.91;4975022;28;20417;-93
2023/06/13 07:01:15;;;;;;;6.20;3.78;;;;;;;30.64;32.78;100406.94;4975284;28;20050;-94
2023/06/13 07:03:41;;;;;;;7.03;4.18;;;;;;;31.21;31.97;100412.03;4957780;28;20386;-94
2023/06/13 07:06:06;;;;;;;8.30;4.15;;;;;;;31.11;31.36;100407.25;4975052;28;20031;-95
2023/06/13 07:08:32;;;;;;;7.40;4.72;;;;;;;31.41;32.20;100401.16;4935768;28;1162693;-94
2023/06/13 07:10:58;;;;;;;4.70;3.90;;;;;;;30.70;32.79;100405.25;4969763;28;20034;-94
2023/06/13 07:13:23;;;;;;;7.05;4.30;;;;;;;31.01;33.62;100401.63;4959429;28;20029;-94
2023/06/13 07:15:49;;;;;;;8.77;4.03;;;;;;;31.89;32.07;100405.56;4958988;28;20022;-92
2023/06/13 07:18:14;;;;;;;9.88;4.20;;;;;;;31.21;32.38;100400.56;4975689;28;20504;-94
2023/06/13 07:20:39;;;;;;;9.15;3.95;;;;;;;31.67;31.24;100402.63;4975092;28;20027;-93
2023/06/13 07:23:06;;;;;;;5.07;4.57;;;;;;;30.88;32.74;100402.63;4956617;28;20553;-94
2023/06/13 07:25:32;;;;;;;6.75;4.45;;;;;;;30.65;33.47;100400.59;4970133;28;20023;-94
2023/06/13 07:27:58;;;;;;;5.10;4.18;;;;;;;31.47;31.91;100410.09;4959771;28;20030;-96
2023/06/13 07:30:24;;;;;;;5.60;4.28;;;;;;;30.50;32.33;100403.59;4956577;28;20100;-95
2023/06/13 07:32:51;;;;;;;7.75;4.50;;;;;;;30.77;31.95;100405.16;4958946;28;20473;-94
2023/06/13 07:35:16;;;;;;;6.03;3.88;;;;;;;30.67;32.19;100406.50;4955763;28;20026;-95
2023/06/13 07:37:42;;;;;;;7.43;5.20;;;;;;;31.10;31.83;100394.97;4955973;28;20393;-96
2023/06/13 07:40:09;;;;;;;9.38;5.70;;;;;;;29.65;32.60;100404.06;4972780;28;20038;-94
2023/06/13 07:42:35;;;;;;;7.40;4.85;;;;;;;30.13;33.36;100400.03;4958873;28;20034;-95
2023/06/13 07:45:00;;;;;;;12.45;4.55;;;;;;;29.75;33.62;100408.94;4975963;28;20030;-94
2023/06/13 07:47:26;;;;;;;11.77;4.90;;;;;;;30.14;32.42;100408.81;4958887;28;20500;-94
2023/06/13 07:49:51;;;;;;;7.25;4.07;;;;;;;30.59;33.25;100414.78;4958556;28;20033;-95
2023/06/13 07:52:17;;;;;;;7.47;4.00;;;;;;;29.75;35.14;100397.44;4953160;28;20022;-95
2023/06/13 07:54:42;;;;;;;5.78;4.18;;;;;;;30.56;34.16;100399.25;4949547;28;20023;-94
2023/06/13 07:57:07;;;;;;;9.05;3.78;;;;;;;30.67;34.72;100405.69;4975845;28;20035;-96
2023/06/13 07:59:33;;;;;;;10.95;3.80;;;;;;;30.58;34.65;100407.00;4958861;28;20035;-94
2023/06/13 08:01:58;;;;;;;9.35;4.05;;;;;;;30.61;34.16;100401.25;4959147;28;20034;-95
2023/06/13 08:04:24;;;;;;;8.18;4.30;;;;;;;30.86;32.86;100398.53;4959091;28;20386;-94
2023/06/13 08:06:50;;;;;;;4.72;3.95;;;;;;;30.93;33.47;100402.75;4958541;28;20042;-95
2023/06/13 08:09:17;;;;;;;14.60;4.40;;;;;;;30.97;32.26;100405.81;4957302;28;20074;-94
2023/06/13 08:11:43;;;;;;;8.15;3.78;;;;;;;30.86;35.15;100410.00;4974703;28;20019;-95
2023/06/13 08:14:12;;;;;;;4.22;3.30;;;;;;;30.67;34.64;100398.50;4975331;28;20507;-94
2023/06/13 08:16:38;;;;;;;6.53;3.88;;;;;;;30.97;33.19;100396.97;4958745;28;20051;-95
2023/06/13 08:19:04;;;;;;;5.65;3.88;;;;;;;30.75;33.28;100385.91;4958169;28;20584;-93
2023/06/13 08:21:29;;;;;;;4.80;3.38;;;;;;;30.65;33.21;100392.59;4975247;28;20034;-94
2023/06/13 08:23:55;;;;;;;4.68;3.55;;;;;;;30.06;34.02;100385.97;4957835;28;20100;-94
2023/06/13 08:26:22;;;;;;;8.60;3.40;;;;;;;30.64;32.99;100382.16;4956975;28;20074;-94
2023/06/13 08:28:48;;;;;;;4.95;3.20;;;;;;;30.62;34.08;100382.38;4955783;28;20030;-94
2023/06/13 08:31:13;;;;;;;6.57;3.35;;;;;;;31.05;32.64;100386.03;4973467;28;20039;-95
2023/06/13 08:33:39;;;;;;;4.80;3.35;;;;;;;30.72;33.78;100377.34;4956500;28;20496;-95
2023/06/13 08:36:05;;;;;;;7.95;3.45;;;;;;;31.09;31.47;100377.34;4974456;28;20482;-96
2023/06/13 08:38:31;;;;;;;7.65;3.72;;;;;;;30.95;31.95;100369.75;4974330;28;20035;-95
2023/06/13 08:40:57;;;;;;;8.00;3.28;;;;;;;31.10;30.58;100378.97;4958030;28;20519;-93
2023/06/13 08:43:22;;;;;;;5.43;3.35;;;;;;;30.95;31.40;100375.91;4958079;28;20477;-94
2023/06/13 08:45:48;;;;;;;5.25;3.00;;;;;;;31.39;32.47;100381.91;4957933;28;20034;-94
2023/06/13 08:48:14;;;;;;;6.60;3.55;;;;;;;30.46;32.95;100378.47;4975180;28;20031;-95
2023/06/13 08:50:39;;;;;;;4.63;3.38;;;;;;;31.13;31.30;100372.38;4957496;28;20457;-94
2023/06/13 08:53:06;;;;;;;4.80;3.55;;;;;;;31.18;31.85;100369.84;4957799;28;20030;-94
2023/06/13 08:55:37;;;;;;;8.82;3.78;;;;;;;31.22;33.28;100370.22;4973339;28;20026;-95
2023/06/13 08:58:04;;;;;;;4.78;3.50;;;;;;;32.20;31.67;100366.28;4956919;28;20126;-95
2023/06/13 09:00:33;;;;;;;4.25;3.30;;;;;;;31.76;31.41;100371.91;4957335;28;20027;-94
2023/06/13 09:03:00;;;;;;;8.13;3.35;;;;;;;31.76;31.67;100360.41;4956274;28;20022;-95
2023/06/13 09:05:27;;;;;;;11.20;3.65;;;;;;;31.41;30.98;100358.50;4957062;28;20374;-95
2023/06/13 09:07:54;;;;;;;6.93;3.28;;;;;;;32.22;31.77;100352.69;4974491;28;20027;-95
2023/06/13 09:10:20;;;;;;;8.32;3.75;;;;;;;32.39;29.96;100354.41;4974555;28;20093;-95
2023/06/13 09:12:49;;;;;;;6.45;3.30;;;;;;;32.19;30.26;100343.28;4974423;28;20106;-95
2023/06/13 09:15:15;;;;;;;5.63;3.47;;;;;;;32.73;29.80;100348.47;4974305;28;20027;-96
2023/06/13 09:17:41;;;;;;;9.88;3.38;;;;;;;33.05;29.56;100351.50;4974244;28;20042;-96
2023/06/13 09:20:08;;;;;;;8.30;3.58;;;;;;;32.89;29.24;100346.88;4975179;28;20509;-95
2023/06/13 09:22:36;;;;;;;3.95;3.45;;;;;;;32.99;29.13;100345.19;4957283;28;20035;-96
2023/06/13 09:25:04;;;;;;;6.88;3.00;;;;;;;32.83;29.66;100337.97;4956383;28;20125;-94
2023/06/13 09:27:30;;;;;;;6.65;3.40;;;;;;;33.31;29.47;100335.91;4955775;28;20490;-95
2023/06/13 09:30:00;;;;;;;6.25;3.58;;;;;;;32.99;29.81;100328.34;4956778;28;20474;-95
2023/06/13 09:32:26;;;;;;;7.53;3.40;;;;;;;33.07;30.15;100320.00;4974337;28;20026;-96
2023/06/13 09:34:52;;;;;;;6.43;3.30;;;;;;;33.19;30.02;100331.44;4974472;28;20137;-96
2023/06/13 09:37:17;;;;;;;7.95;3.47;;;;;;;33.05;28.84;100324.75;4974451;28;20023;-94
2023/06/13 09:39:48;;;;;;;5.28;3.28;;;;;;;33.73;29.30;100330.22;4974207;28;20078;-95
2023/06/13 09:42:13;;;;;;;10.35;3.78;;;;;;;32.27;28.86;100340.25;4973926;28;20054;-95
2023/06/13 09:44:39;;;;;;;7.32;3.40;;;;;;;33.24;28.90;100323.50;4973945;28;20114;-94
2023/06/13 09:47:04;;;;;;;7.50;3.20;;;;;;;33.56;28.91;100331.03;4974167;28;20601;-96
2023/06/13 09:49:30;;;;;;;8.70;3.47;;;;;;;33.35;27.96;100331.69;4955478;28;20050;-94
2023/06/13 09:51:59;;;;;;;4.25;2.88;;;;;;;33.89;29.13;100330.19;4956348;28;20476;-95
2023/06/13 09:54:29;;;;;;;14.55;3.47;;;;;;;34.01;27.22;100326.59;4974495;28;20266;-94
2023/06/13 09:56:55;;;;;;;7.50;3.70;;;;;;;34.10;26.75;100322.50;4973795;28;20058;-96
2023/06/13 09:59:20;;;;;;;7.32;4.28;;;;;;;34.34;31.02;100320.41;4971982;28;20453;-96
2023/06/13 10:01:49;;;;;;;8.98;4.60;;;;;;;34.44;33.08;100317.84;4956535;28;20489;-96
2023/06/13 10:04:15;;;;;;;10.00;4.57;;;;;;;34.09;32.95;100321.69;4956773;28;20022;-95
2023/06/13 10:06:41;;;;;;;11.45;5.43;;;;;;;34.17;32.55;100308.91;4956686;28;20031;-95
2023/06/13 10:09:07;;;;;;;9.85;5.60;;;;;;;34.04;33.78;100310.88;4956683;28;20035;-95
2023/06/13 10:11:34;;;;;;;12.68;4.97;;;;;;;33.83;34.76;100325.00;4957106;28;20033;-95
2023/06/13 10:14:06;;;;;;;10.30;5.47;;;;;;;34.23;34.38;100319.44;4973624;28;20366;-95
2023/06/13 10:16:35;;;;;;;7.43;4.45;;;;;;;34.15;34.19;100321.75;4972159;28;20031;-96
2023/06/13 10:19:05;;;;;;;8.50;4.85;;;;;;;34.27;33.85;100322.44;4936163;29;20110;-96
2023/06/13 10:21:32;;;;;;;5.93;4.53;;;;;;;34.64;34.16;100329.91;4937303;29;20057;-95
2023/06/13 10:23:58;;;;;;;8.35;5.43;;;;;;;34.26;33.91;100323.50;4937498;29;20023;-95
2023/06/13 10:26:41;;;;;;;9.65;5.30;;;;;;;34.26;34.36;100323.50;4937483;28;20023;-96
2023/06/13 10:29:30;;;;;;;11.02;4.82;;;;;;;34.19;33.69;100333.56;4954532;28;20090;-95
2023/06/13 10:32:19;;;;;;;9.68;5.35;;;;;;;34.60;32.75;100324.22;4937455;29;20500;-94
2023/06/13 10:35:08;;;;;;;8.18;5.72;;;;;;;34.21;34.00;100326.09;4954324;28;20032;-96
2023/06/13 10:38:14;;;;;;;10.52;6.40;;;;;;;34.40;33.86;100326.63;4953044;29;20030;-96
2023/06/13 10:40:42;;;;;;;7.15;5.72;;;;;;;34.74;33.99;100313.91;4937103;29;20039;-95
2023/06/13 10:43:24;;;;;;;10.60;5.20;;;;;;;34.92;34.12;100318.94;4954181;28;20027;-96
2023/06/13 10:45:52;;;;;;;8.85;5.03;;;;;;;35.01;33.17;100315.81;4953410;28;20035;-95
2023/06/13 10:48:34;;;;;;;7.47;4.85;;;;;;;35.30;32.39;100300.28;4951461;28;20035;-96
2023/06/13 10:50:59;;;;;;;9.30;5.00;;;;;;;35.10;34.38;100304.41;4937264;29;20489;-96
2023/06/13 10:53:27;;;;;;;7.88;5.90;;;;;;;34.76;33.77;100301.06;4953952;28;20027;-96
2023/06/13 10:55:59;;;;;;;8.85;5.97;;;;;;;34.59;34.08;100309.19;4936499;29;20051;-96
2023/06/13 10:58:25;;;;;;;7.75;5.25;;;;;;;35.15;33.32;100306.31;4936838;29;20038;-96
2023/06/13 11:00:50;;;;;;;9.38;5.53;;;;;;;35.06;33.00;100307.81;4954435;28;20481;-95
2023/06/13 11:03:16;;;;;;;5.10;4.53;;;;;;;35.31;32.59;100294.66;4937075;29;20027;-95
2023/06/13 11:05:44;;;;;;;7.72;4.47;;;;;;;35.45;33.54;100292.34;4936590;29;20027;-96
2023/06/13 11:08:28;;;;;;;5.07;4.30;;;;;;;35.93;32.58;100293.22;4966237;28;20045;-96
2023/06/13 11:10:55;;;;;;;5.40;4.75;;;;;;;35.12;32.34;100299.59;4955857;28;20082;-96
2023/06/13 11:13:26;;;;;;;4.78;4.10;;;;;;;35.39;32.24;100306.00;4973210;28;20525;-95
2023/06/13 11:15:56;;;;;;;7.32;4.80;;;;;;;35.62;31.64;100302.97;4956417;28;20065;-96